Time;durP1;ratioP1;P1;durP2;ratioP2;P2;SDS_P1;SDS_P2;PMS_P1;PMS_P2;Temp;Humidity;BMP_temperature;BMP_pressure;BME280_temperature;BME280_humidity;BME280_pressure;Samples;Min_cycle;Max_cycle;Signal;HPM_P1;HPM_P2
2021/09/02 00:02:17;;;;;;;5.85;3.17;;;;;;;20.62;40.33;99876.84;5042887;28;20025;-46
2021/09/02 00:04:43;;;;;;;5.00;3.30;;;;;;;20.49;40.40;99871.91;5047609;28;20040;-48
2021/09/02 00:07:08;;;;;;;5.97;3.67;;;;;;;20.40;40.92;99878.91;5036977;28;20036;-46
2021/09/02 00:09:34;;;;;;;8.25;3.30;;;;;;;20.37;40.92;99869.47;5047254;28;20446;-47
2021/09/02 00:12:01;;;;;;;5.07;3.10;;;;;;;20.67;40.18;99878.75;5041096;28;20025;-47
2021/09/02 00:14:27;;;;;;;5.43;3.35;;;;;;;20.05;41.45;99881.22;5041364;28;20435;-48
2021/09/02 00:16:52;;;;;;;6.35;3.45;;;;;;;20.29;41.14;99878.06;5048312;28;20453;-46
2021/09/02 00:19:18;;;;;;;4.28;3.25;;;;;;;20.55;40.49;99888.97;5036692;28;20036;-48
2021/09/02 00:21:43;;;;;;;4.93;3.00;;;;;;;20.30;40.98;99885.09;5046930;28;20551;-47
2021/09/02 00:24:09;;;;;;;4.85;3.50;;;;;;;20.33;40.79;99886.44;5042197;28;20028;-46
2021/09/02 00:26:34;;;;;;;5.13;3.40;;;;;;;20.29;41.09;99872.66;5046230;28;20036;-47
2021/09/02 00:29:00;;;;;;;6.35;3.33;;;;;;;20.39;40.88;99875.41;5036718;28;20559;-47
2021/09/02 00:31:26;;;;;;;4.65;3.55;;;;;;;20.40;40.98;99881.63;5049229;28;20474;-48
2021/09/02 00:33:51;;;;;;;5.18;3.40;;;;;;;20.29;41.30;99872.66;5039293;28;20116;-47
2021/09/02 00:36:17;;;;;;;5.95;3.45;;;;;;;20.37;40.79;99882.13;5041551;28;20033;-47
2021/09/02 00:38:42;;;;;;;5.90;3.50;;;;;;;20.14;41.41;99886.09;5046686;28;20044;-46
2021/09/02 00:41:08;;;;;;;5.63;3.45;;;;;;;20.03;41.79;99887.94;5035752;28;20033;-47
2021/09/02 00:43:40;;;;;;;5.38;3.65;;;;;;;19.89;42.44;99893.00;5047765;28;20450;-46
2021/09/02 00:46:06;;;;;;;5.03;3.42;;;;;;;19.91;41.93;99893.53;5041118;28;20028;-45
2021/09/02 00:48:33;;;;;;;4.70;3.40;;;;;;;19.85;42.31;99897.28;5039424;28;20029;-46
2021/09/02 00:50:58;;;;;;;7.38;3.70;;;;;;;20.19;41.39;99897.75;5048048;28;20021;-47
2021/09/02 00:53:24;;;;;;;7.00;3.65;;;;;;;19.89;42.47;99895.69;5035631;28;20028;-49
2021/09/02 00:55:49;;;;;;;6.40;3.42;;;;;;;20.01;41.79;99893.63;5045507;28;20044;-48
2021/09/02 00:58:15;;;;;;;7.28;3.55;;;;;;;19.88;42.25;99889.50;5032173;28;20034;-47
2021/09/02 01:00:40;;;;;;;5.55;3.53;;;;;;;20.09;41.77;99892.31;5027890;28;20060;-46
2021/09/02 01:03:06;;;;;;;10.10;3.50;;;;;;;19.89;42.41;99898.41;5034095;28;20045;-47
2021/09/02 01:05:31;;;;;;;5.10;3.60;;;;;;;19.83;42.46;99891.34;5047934;28;20021;-48
2021/09/02 01:07:57;;;;;;;7.45;3.58;;;;;;;19.69;42.65;99888.28;5039613;28;20021;-49
2021/09/02 01:10:23;;;;;;;6.68;4.05;;;;;;;19.84;42.01;99887.59;5039067;28;20056;-49
2021/09/02 01:12:49;;;;;;;5.13;3.50;;;;;;;19.67;42.50;99890.41;5046275;28;20017;-48
2021/09/02 01:15:22;;;;;;;5.60;3.83;;;;;;;19.66;42.44;99883.38;5035364;28;20076;-47
2021/09/02 01:17:49;;;;;;;9.38;4.00;;;;;;;19.52;42.94;99891.91;5045389;28;20025;-48
2021/09/02 01:20:16;;;;;;;5.72;3.88;;;;;;;19.52;43.04;99883.03;5041703;28;20039;-49
2021/09/02 01:22:42;;;;;;;4.78;3.78;;;;;;;19.84;42.08;99883.00;5037093;28;20029;-46
2021/09/02 01:25:10;;;;;;;6.00;3.80;;;;;;;19.76;42.68;99875.34;5042314;28;20167;-49
2021/09/02 01:27:35;;;;;;;8.57;4.00;;;;;;;19.56;42.74;99891.41;5046844;28;20017;-48
2021/09/02 01:30:03;;;;;;;6.32;3.70;;;;;;;19.39;43.26;99886.97;5039819;28;20032;-46
2021/09/02 01:32:35;;;;;;;5.80;3.72;;;;;;;19.47;43.14;99891.88;5039401;28;20322;-47
2021/09/02 01:35:01;;;;;;;6.30;4.10;;;;;;;19.44;43.12;99892.41;5048034;28;20574;-46
2021/09/02 01:37:46;;;;;;;9.38;3.90;;;;;;;19.70;42.78;99888.00;5034952;28;20019;-46
2021/09/02 01:40:32;;;;;;;8.25;4.10;;;;;;;19.80;42.63;99891.84;5041893;28;20100;-47
2021/09/02 01:42:58;;;;;;;7.40;3.97;;;;;;;19.83;42.57;99891.34;5046993;28;20406;-46
2021/09/02 01:45:24;;;;;;;9.27;3.67;;;;;;;20.01;42.17;99884.69;5034578;28;20035;-47
2021/09/02 01:47:49;;;;;;;7.63;3.72;;;;;;;19.89;42.65;99893.78;5043611;28;20379;-49
2021/09/02 01:50:17;;;;;;;6.32;3.70;;;;;;;19.82;42.59;99887.00;5041268;28;20048;-47
2021/09/02 01:52:43;;;;;;;5.75;3.50;;;;;;;19.69;42.82;99880.97;5037277;28;20026;-47
2021/09/02 01:55:09;;;;;;;5.82;4.30;;;;;;;19.83;42.61;99878.66;5047713;28;20044;-49
2021/09/02 01:57:34;;;;;;;6.38;3.63;;;;;;;19.61;43.12;99881.47;5030863;28;20017;-46
2021/09/02 02:00:00;;;;;;;6.05;3.63;;;;;;;19.56;43.17;99881.44;5031195;28;20087;-46
2021/09/02 02:02:25;;;;;;;7.30;3.75;;;;;;;19.33;43.56;99878.03;5042498;28;20025;-47
2021/09/02 02:04:51;;;;;;;5.07;3.70;;;;;;;19.36;43.46;99878.56;5035851;28;20083;-48
2021/09/02 02:07:16;;;;;;;5.75;4.03;;;;;;;19.17;43.99;99883.53;5047409;28;20071;-47
2021/09/02 02:09:42;;;;;;;5.85;4.10;;;;;;;18.99;44.55;99869.38;5036453;28;20053;-48
2021/09/02 02:12:07;;;;;;;8.85;3.92;;;;;;;19.04;44.37;99868.59;5041647;28;20122;-47
2021/09/02 02:14:34;;;;;;;7.55;4.13;;;;;;;19.12;44.32;99868.94;5043662;28;20400;-45
2021/09/02 02:16:59;;;;;;;6.15;4.20;;;;;;;19.33;43.68;99852.94;5034457;28;20021;-47
2021/09/02 02:19:25;;;;;;;6.80;4.20;;;;;;;18.99;44.83;99863.16;5047262;28;20036;-47
2021/09/02 02:21:50;;;;;;;6.90;4.00;;;;;;;18.71;45.53;99852.34;5037365;28;20036;-48
2021/09/02 02:24:15;;;;;;;5.53;4.00;;;;;;;18.94;45.00;99858.53;5040377;28;20037;-47
2021/09/02 02:26:41;;;;;;;6.13;4.07;;;;;;;18.90;45.10;99855.53;5030651;28;20377;-46
2021/09/02 02:29:06;;;;;;;6.40;3.92;;;;;;;18.98;45.20;99850.75;5047148;28;20033;-46
2021/09/02 02:31:32;;;;;;;6.10;4.00;;;;;;;19.14;44.47;99856.00;5034769;28;20060;-47
2021/09/02 02:33:57;;;;;;;7.28;4.15;;;;;;;18.97;45.07;99855.34;5042550;28;20488;-47
2021/09/02 02:36:23;;;;;;;7.10;4.22;;;;;;;18.84;45.70;99853.88;5041570;28;20044;-46
2021/09/02 02:38:48;;;;;;;7.40;4.25;;;;;;;19.01;45.05;99852.94;5035632;28;20102;-46
2021/09/02 02:41:13;;;;;;;6.47;4.47;;;;;;;18.85;45.69;99862.75;5046885;28;20072;-46
2021/09/02 02:43:39;;;;;;;7.22;4.18;;;;;;;19.00;44.72;99857.53;5035589;28;20025;-45
2021/09/02 02:46:04;;;;;;;6.85;4.20;;;;;;;18.95;45.27;99866.38;5041582;28;20044;-46
2021/09/02 02:48:30;;;;;;;5.30;3.75;;;;;;;18.86;45.40;99865.19;5042695;28;20142;-45
2021/09/02 02:50:55;;;;;;;10.65;4.72;;;;;;;18.76;45.78;99859.69;5034465;28;20025;-46
2021/09/02 02:53:21;;;;;;;6.75;4.00;;;;;;;18.84;45.53;99855.75;5046709;28;20033;-46
2021/09/02 02:55:46;;;;;;;6.95;4.32;;;;;;;18.94;44.83;99856.66;5036559;28;20126;-46
2021/09/02 02:58:12;;;;;;;10.98;4.10;;;;;;;18.63;46.06;99847.44;5039800;28;20033;-46
2021/09/02 03:00:37;;;;;;;7.85;4.20;;;;;;;18.19;47.08;99842.09;5029946;28;20021;-47
2021/09/02 03:03:03;;;;;;;7.75;5.05;;;;;;;18.44;46.41;99856.94;5046244;28;20449;-46
2021/09/02 03:05:28;;;;;;;7.45;4.55;;;;;;;18.40;46.89;99858.50;5033842;28;20052;-46
2021/09/02 03:07:53;;;;;;;6.85;4.25;;;;;;;18.75;46.04;99861.59;5042630;28;20040;-47
2021/09/02 03:10:19;;;;;;;7.70;4.25;;;;;;;18.67;45.96;99866.59;5040756;28;20118;-47
2021/09/02 03:12:44;;;;;;;6.88;4.30;;;;;;;18.91;45.57;99870.66;5035763;28;20025;-48
2021/09/02 03:15:10;;;;;;;6.57;4.65;;;;;;;18.77;45.97;99877.47;5046474;28;20460;-47
2021/09/02 03:17:36;;;;;;;27.80;16.23;;;;;;;18.92;45.74;99876.84;5034526;28;20025;-48
2021/09/02 03:20:02;;;;;;;6.63;4.50;;;;;;;18.52;46.81;99873.47;5041552;28;20087;-48
2021/09/02 03:22:28;;;;;;;7.70;4.35;;;;;;;18.61;46.81;99886.50;5041771;28;20033;-47
2021/09/02 03:24:53;;;;;;;8.23;4.38;;;;;;;18.43;47.20;99884.91;5033068;28;20458;-48
2021/09/02 03:27:19;;;;;;;6.85;4.07;;;;;;;18.27;47.59;99895.53;5031957;28;20127;-49
2021/09/02 03:29:44;;;;;;;7.50;5.22;;;;;;;18.54;47.22;99892.06;5043816;28;20022;-47
2021/09/02 03:32:09;;;;;;;9.38;6.18;;;;;;;18.64;46.84;99894.88;5039075;28;20043;-48
2021/09/02 03:34:35;;;;;;;9.82;4.57;;;;;;;18.61;46.90;99903.47;5037016;28;20044;-47
2021/09/02 03:37:00;;;;;;;7.18;4.28;;;;;;;18.70;46.62;99898.44;5046397;28;20090;-47
2021/09/02 03:39:26;;;;;;;7.97;5.10;;;;;;;18.35;47.68;99900.50;5033483;28;20040;-48
2021/09/02 03:41:51;;;;;;;51.33;36.08;;;;;;;18.87;46.28;99903.78;5042504;28;20470;-48
2021/09/02 03:44:17;;;;;;;21.92;12.85;;;;;;;18.97;46.04;99898.47;5040125;28;20365;-48
2021/09/02 03:46:42;;;;;;;6.63;4.50;;;;;;;18.95;45.95;99901.44;5033426;28;20025;-47
2021/09/02 03:49:07;;;;;;;6.65;4.22;;;;;;;18.84;46.36;99904.28;5030748;28;20099;-49
2021/09/02 03:51:33;;;;;;;5.85;4.20;;;;;;;18.86;46.13;99899.44;5045095;28;20030;-47
2021/09/02 03:53:58;;;;;;;8.63;4.45;;;;;;;18.50;47.17;99899.03;5038166;28;20161;-46
2021/09/02 03:56:24;;;;;;;8.05;4.30;;;;;;;18.52;47.18;99902.28;5038294;28;20033;-49
2021/09/02 03:58:51;;;;;;;7.97;4.63;;;;;;;18.89;46.34;99898.94;5044792;28;20028;-46
2021/09/02 04:01:16;;;;;;;6.60;4.32;;;;;;;18.65;46.80;99904.59;5033002;28;20080;-46
2021/09/02 04:03:42;;;;;;;10.68;4.68;;;;;;;18.98;46.04;99918.16;5043662;28;20557;-46
2021/09/02 04:06:07;;;;;;;9.18;4.32;;;;;;;18.95;46.06;99911.41;5038562;28;20033;-46
2021/09/02 04:08:33;;;;;;;9.02;4.25;;;;;;;18.88;45.63;99919.69;5036606;28;20037;-45
2021/09/02 04:10:58;;;;;;;8.25;4.28;;;;;;;19.50;44.64;99914.84;5048328;28;20037;-45
2021/09/02 04:13:24;;;;;;;6.88;3.85;;;;;;;19.34;44.26;99909.34;5036332;28;20021;-47
2021/09/02 04:15:50;;;;;;;5.82;4.00;;;;;;;19.22;44.66;99918.66;5045922;28;20366;-48
2021/09/02 04:18:15;;;;;;;6.85;4.00;;;;;;;19.48;44.09;99922.41;5043183;28;20028;-47
2021/09/02 04:20:41;;;;;;;6.05;3.63;;;;;;;20.12;45.27;99924.19;5039144;28;20029;-47
2021/09/02 04:23:06;;;;;;;6.53;3.83;;;;;;;20.49;42.22;99924.09;5049171;28;20488;-47
2021/09/02 04:25:32;;;;;;;5.30;3.50;;;;;;;20.58;43.32;99915.44;5032019;28;20331;-49
2021/09/02 04:27:57;;;;;;;7.70;3.95;;;;;;;20.50;41.74;99920.31;5039385;28;20123;-49
2021/09/02 04:30:22;;;;;;;6.90;3.80;;;;;;;20.61;41.20;99917.66;5040339;28;20033;-46
2021/09/02 04:32:48;;;;;;;7.00;4.13;;;;;;;20.45;41.77;99917.59;5046421;28;20056;-47
2021/09/02 04:35:13;;;;;;;7.63;4.10;;;;;;;20.63;41.14;99918.22;5035050;28;20025;-47
2021/09/02 04:37:40;;;;;;;6.95;3.92;;;;;;;20.86;40.52;99930.44;5046497;28;20484;-46
2021/09/02 04:40:06;;;;;;;8.57;4.00;;;;;;;20.97;40.49;99931.28;5040607;28;20086;-48
2021/09/02 04:42:31;;;;;;;5.30;3.95;;;;;;;21.47;39.82;99935.13;5038740;28;20036;-48
2021/09/02 04:44:57;;;;;;;6.05;3.85;;;;;;;21.43;38.77;99942.94;5044923;28;20021;-47
2021/09/02 04:47:22;;;;;;;6.95;5.22;;;;;;;21.27;39.07;99930.50;5046894;28;20028;-46
2021/09/02 04:49:48;;;;;;;7.78;3.50;;;;;;;21.12;39.89;99930.50;5038129;28;20111;-46
2021/09/02 04:52:13;;;;;;;7.68;3.80;;;;;;;21.09;39.81;99934.53;5041438;28;20332;-47
2021/09/02 04:54:39;;;;;;;5.28;3.85;;;;;;;21.99;39.34;99934.00;5044887;28;20029;-46
2021/09/02 04:57:04;;;;;;;5.10;3.35;;;;;;;22.19;37.88;99932.31;5034641;28;20029;-48
2021/09/02 04:59:30;;;;;;;7.93;3.60;;;;;;;21.81;38.26;99929.94;5047440;28;20388;-47
2021/09/02 05:01:55;;;;;;;6.63;3.60;;;;;;;21.76;38.84;99943.53;5038591;28;20052;-46
2021/09/02 05:04:21;;;;;;;6.00;4.00;;;;;;;22.23;38.10;99947.72;5039884;28;20021;-46
2021/09/02 05:06:46;;;;;;;5.88;3.90;;;;;;;22.34;37.56;99947.75;5044363;28;20033;-49
2021/09/02 05:09:12;;;;;;;5.45;3.80;;;;;;;22.10;38.29;99948.31;5034652;28;20625;-47
2021/09/02 05:11:37;;;;;;;6.63;3.42;;;;;;;22.00;38.17;99951.84;5045921;28;20040;-46
2021/09/02 05:14:02;;;;;;;5.55;3.88;;;;;;;22.80;36.88;99955.66;5039517;28;20025;-48
2021/09/02 05:16:28;;;;;;;7.57;3.80;;;;;;;23.33;36.14;99955.09;5039051;28;20152;-46
2021/09/02 05:18:53;;;;;;;5.43;3.80;;;;;;;23.38;35.96;99957.75;5046416;28;20036;-48
2021/09/02 05:21:19;;;;;;;5.20;3.25;;;;;;;22.95;36.71;99954.78;5033828;28;20017;-46
2021/09/02 05:23:44;;;;;;;5.95;3.42;;;;;;;23.60;35.59;99944.53;5044341;28;20083;-47
2021/09/02 05:26:10;;;;;;;6.50;3.60;;;;;;;23.86;35.28;99947.06;5030546;28;20021;-47
2021/09/02 05:28:35;;;;;;;8.55;3.75;;;;;;;23.50;35.66;99944.63;5043535;28;20645;-47
2021/09/02 05:31:01;;;;;;;5.35;3.67;;;;;;;23.79;35.21;99943.88;5033711;28;20025;-47
2021/09/02 05:33:26;;;;;;;7.07;3.85;;;;;;;24.27;34.56;99946.59;5046503;28;20021;-47
2021/09/02 05:35:51;;;;;;;4.47;3.28;;;;;;;24.10;34.50;99948.97;5037542;28;20136;-47
2021/09/02 05:38:17;;;;;;;6.20;3.53;;;;;;;23.50;35.96;99957.41;5039677;28;20460;-48
2021/09/02 05:40:42;;;;;;;8.43;3.85;;;;;;;24.48;34.46;99944.44;5044525;28;20040;-47
2021/09/02 05:43:08;;;;;;;8.27;3.83;;;;;;;25.04;33.56;99951.09;5033719;28;20021;-51
2021/09/02 05:45:33;;;;;;;8.77;3.80;;;;;;;25.02;33.30;99955.19;5047989;28;20013;-46
2021/09/02 05:48:01;;;;;;;9.30;3.90;;;;;;;25.11;33.29;99956.97;5043007;28;20547;-48
2021/09/02 05:50:27;;;;;;;6.40;3.50;;;;;;;24.97;33.77;99954.16;5042159;28;20059;-48
2021/09/02 05:52:53;;;;;;;8.63;4.00;;;;;;;25.17;33.63;99960.44;5035526;28;20152;-47
2021/09/02 05:55:18;;;;;;;6.60;3.92;;;;;;;24.53;34.60;99949.88;5046916;28;20033;-47
2021/09/02 05:57:44;;;;;;;8.15;3.90;;;;;;;25.41;33.39;99943.19;5036583;28;20104;-46
2021/09/02 06:00:10;;;;;;;6.57;3.90;;;;;;;25.93;32.47;99952.94;5040713;28;20025;-47
2021/09/02 06:02:35;;;;;;;5.82;3.85;;;;;;;25.29;33.66;99949.13;5031614;28;20028;-46
2021/09/02 06:05:01;;;;;;;7.30;4.13;;;;;;;24.85;34.06;99947.56;5030073;28;20021;-49
2021/09/02 06:07:26;;;;;;;7.63;4.07;;;;;;;25.16;33.82;99950.63;5046589;28;20025;-49
2021/09/02 06:09:51;;;;;;;8.32;4.00;;;;;;;26.14;32.38;99947.09;5036899;28;20044;-48
2021/09/02 06:12:17;;;;;;;6.82;3.92;;;;;;;25.43;32.75;99941.78;5039468;28;20033;-46
2021/09/02 06:14:42;;;;;;;5.35;3.80;;;;;;;25.46;33.31;99940.41;5040685;28;20033;-49
2021/09/02 06:17:08;;;;;;;6.07;4.07;;;;;;;25.07;33.75;99944.22;5039475;28;20032;-47
2021/09/02 06:19:33;;;;;;;5.85;3.92;;;;;;;24.74;34.55;99944.16;5035653;28;20402;-47
2021/09/02 06:21:59;;;;;;;8.23;4.45;;;;;;;25.85;32.95;99944.63;5041445;28;20036;-49
2021/09/02 06:24:24;;;;;;;7.72;3.85;;;;;;;26.17;32.46;99937.50;5041690;28;20025;-47
2021/09/02 06:26:50;;;;;;;11.05;4.30;;;;;;;26.04;32.55;99933.66;5039485;28;20029;-49
2021/09/02 06:29:15;;;;;;;9.52;4.07;;;;;;;26.25;32.24;99934.06;5040328;28;20031;-45
2021/09/02 06:31:41;;;;;;;8.07;3.88;;;;;;;26.60;31.76;99935.28;5040057;28;20025;-50
2021/09/02 06:34:06;;;;;;;6.75;3.95;;;;;;;27.11;30.86;99944.22;5040594;28;20021;-49
2021/09/02 06:36:32;;;;;;;5.97;4.07;;;;;;;26.51;31.88;99961.63;5046391;28;20029;-50
2021/09/02 06:38:57;;;;;;;7.75;3.90;;;;;;;26.27;31.95;99948.22;5033611;28;20029;-50
2021/09/02 06:41:23;;;;;;;5.90;3.90;;;;;;;26.17;32.39;99948.41;5046045;28;20645;-48
2021/09/02 06:43:48;;;;;;;18.77;9.43;;;;;;;25.92;32.91;99947.78;5035833;28;20020;-49
2021/09/02 06:46:13;;;;;;;6.45;4.30;;;;;;;25.46;33.79;99949.38;5039203;28;20037;-46
2021/09/02 06:48:39;;;;;;;10.32;4.45;;;;;;;25.91;33.17;99952.44;5043013;28;20024;-47
2021/09/02 06:51:04;;;;;;;8.80;4.10;;;;;;;26.49;32.67;99944.78;5032861;28;20029;-48
2021/09/02 06:53:30;;;;;;;7.55;4.07;;;;;;;26.91;31.68;99940.06;5045367;28;20021;-51
2021/09/02 06:55:55;;;;;;;8.95;4.20;;;;;;;26.98;31.75;99943.19;5037218;28;20170;-49
2021/09/02 06:58:21;;;;;;;8.13;4.30;;;;;;;27.21;31.42;99938.53;5038429;28;20473;-49
2021/09/02 07:00:46;;;;;;;6.75;4.10;;;;;;;27.19;31.43;99946.25;5043139;28;20021;-47
2021/09/02 07:03:12;;;;;;;5.28;3.90;;;;;;;26.86;31.42;99951.09;5045916;28;20025;-49
2021/09/02 07:05:37;;;;;;;7.55;3.88;;;;;;;26.91;31.66;99951.78;5034472;28;20354;-49
2021/09/02 07:08:03;;;;;;;6.13;4.10;;;;;;;26.87;31.57;99952.72;5040690;28;20025;-47
2021/09/02 07:10:28;;;;;;;8.20;4.15;;;;;;;26.79;31.44;99950.69;5041549;28;20556;-47
2021/09/02 07:12:54;;;;;;;6.60;3.97;;;;;;;26.60;31.55;99948.94;5049329;28;20052;-50
2021/09/02 07:15:19;;;;;;;9.38;4.15;;;;;;;26.91;31.67;99949.06;5032401;28;20021;-47
2021/09/02 07:17:45;;;;;;;7.32;4.05;;;;;;;27.19;30.86;99951.69;5043128;28;20024;-48
2021/09/02 07:20:11;;;;;;;7.95;4.10;;;;;;;27.44;30.71;99955.75;5038464;28;20467;-47
2021/09/02 07:22:37;;;;;;;7.28;3.92;;;;;;;27.77;30.16;99963.69;5035150;28;20021;-50
2021/09/02 07:25:03;;;;;;;5.75;4.07;;;;;;;26.90;30.83;99960.28;5038385;28;20361;-49
2021/09/02 07:27:29;;;;;;;7.93;4.18;;;;;;;27.61;29.92;99952.34;5044290;28;20722;-47
2021/09/02 07:29:54;;;;;;;6.28;4.00;;;;;;;27.48;29.91;99950.50;5035627;28;20032;-48
2021/09/02 07:32:20;;;;;;;5.13;3.85;;;;;;;27.90;29.82;99956.53;5037190;28;20026;-48
2021/09/02 07:34:45;;;;;;;7.05;3.95;;;;;;;27.96;29.39;99949.81;5042838;28;20125;-46
2021/09/02 07:37:11;;;;;;;11.25;4.32;;;;;;;28.07;29.26;99951.16;5032080;28;20079;-51
2021/09/02 07:39:37;;;;;;;7.15;4.20;;;;;;;28.54;28.86;99960.81;5043626;28;20033;-47
2021/09/02 07:42:04;;;;;;;4.30;3.53;;;;;;;28.50;28.29;99957.88;5036785;28;20485;-47
2021/09/02 07:44:30;;;;;;;6.50;4.00;;;;;;;27.75;29.61;99951.44;5036156;28;20135;-47
2021/09/02 07:46:55;;;;;;;7.75;3.90;;;;;;;28.39;28.53;99954.63;5046708;28;20029;-49
2021/09/02 07:49:21;;;;;;;4.72;3.85;;;;;;;28.12;29.01;99954.84;5035395;28;20470;-49
2021/09/02 07:51:46;;;;;;;5.20;3.83;;;;;;;28.66;28.50;99956.34;5045325;28;20034;-48
2021/09/02 07:54:12;;;;;;;8.25;3.97;;;;;;;28.53;28.32;99957.28;5041464;28;20020;-48
2021/09/02 07:56:37;;;;;;;6.70;3.78;;;;;;;28.86;28.07;99959.56;5038047;28;20040;-48
2021/09/02 07:59:03;;;;;;;7.72;3.80;;;;;;;28.22;28.72;99960.06;5048006;28;20107;-49
2021/09/02 08:01:29;;;;;;;7.10;3.30;;;;;;;28.15;28.97;99959.72;5032243;28;20033;-48
2021/09/02 08:03:54;;;;;;;8.50;3.50;;;;;;;28.33;28.40;99950.44;5039679;28;20082;-47
2021/09/02 08:06:20;;;;;;;4.88;3.20;;;;;;;28.27;28.75;99946.22;5041303;28;20131;-47
2021/09/02 08:08:45;;;;;;;5.03;3.30;;;;;;;28.65;27.99;99943.78;5045302;28;20053;-47
2021/09/02 08:11:11;;;;;;;4.75;3.35;;;;;;;28.43;28.27;99941.94;5035333;28;20481;-48
2021/09/02 08:13:36;;;;;;;6.18;3.53;;;;;;;28.76;27.97;99943.47;5046094;28;20013;-47
2021/09/02 08:16:02;;;;;;;4.97;3.50;;;;;;;28.86;27.85;99937.66;5039611;28;20036;-48
2021/09/02 08:18:27;;;;;;;5.35;3.33;;;;;;;28.55;27.75;99941.34;5040139;28;20196;-48
2021/09/02 08:20:53;;;;;;;4.70;3.25;;;;;;;28.57;27.85;99935.53;5047734;28;20025;-49
2021/09/02 08:23:19;;;;;;;5.50;3.58;;;;;;;27.98;28.35;99946.75;5033475;28;20029;-49
2021/09/02 08:25:44;;;;;;;5.00;3.40;;;;;;;27.82;28.80;99938.94;5045042;28;20115;-47
2021/09/02 08:28:10;;;;;;;7.88;3.50;;;;;;;27.97;28.81;99943.22;5042318;28;20083;-48
2021/09/02 08:30:35;;;;;;;10.35;3.03;;;;;;;28.57;27.74;99927.34;5045262;28;20048;-47
2021/09/02 08:33:01;;;;;;;4.53;2.90;;;;;;;28.56;27.44;99928.44;5035640;28;20029;-51
2021/09/02 08:35:28;;;;;;;4.80;3.42;;;;;;;28.78;27.28;99922.84;5048917;28;20026;-48
2021/09/02 08:37:55;;;;;;;4.72;3.20;;;;;;;29.16;26.88;99932.38;5039585;28;20028;-48
2021/09/02 08:40:24;;;;;;;7.53;3.40;;;;;;;28.95;27.47;99916.56;5041526;28;20112;-48
2021/09/02 08:42:50;;;;;;;5.88;3.20;;;;;;;28.57;27.76;99903.50;5047117;28;20033;-47
2021/09/02 08:45:15;;;;;;;5.18;3.00;;;;;;;28.69;28.16;99919.28;5035533;28;20055;-48
2021/09/02 08:47:45;;;;;;;5.03;2.95;;;;;;;29.13;27.20;99911.09;5046076;28;20025;-51
2021/09/02 08:50:10;;;;;;;4.90;2.90;;;;;;;28.88;27.38;99910.75;5041490;28;20184;-49
2021/09/02 08:52:36;;;;;;;9.23;3.40;;;;;;;28.92;27.29;99913.66;5037482;28;20022;-51
2021/09/02 08:55:03;;;;;;;4.88;2.95;;;;;;;28.77;27.10;99901.25;5048044;28;20028;-47
2021/09/02 08:57:28;;;;;;;4.38;3.40;;;;;;;27.93;28.42;99898.50;5017318;28;20028;-49
2021/09/02 08:59:54;;;;;;;3.90;2.92;;;;;;;28.10;28.58;99908.66;5044330;28;20032;-46
2021/09/02 09:02:27;;;;;;;3.85;3.00;;;;;;;27.92;28.53;99901.53;5031383;28;20036;-47
2021/09/02 09:05:12;;;;;;;5.80;3.05;;;;;;;28.54;27.90;99904.16;5047227;28;20025;-49
2021/09/02 09:07:39;;;;;;;4.93;2.80;;;;;;;28.76;27.86;99908.66;5035946;28;20024;-48
2021/09/02 09:10:25;;;;;;;4.32;3.00;;;;;;;28.94;27.45;99905.94;5041690;28;20045;-50
2021/09/02 09:12:55;;;;;;;5.85;2.90;;;;;;;28.99;27.68;99905.78;5046634;28;20382;-47
2021/09/02 09:15:21;;;;;;;5.55;2.78;;;;;;;29.51;26.87;99905.75;5034922;28;20028;-50
2021/09/02 09:17:47;;;;;;;6.15;2.95;;;;;;;29.09;26.85;99899.16;5045330;28;20049;-48
2021/09/02 09:20:13;;;;;;;4.22;2.90;;;;;;;29.01;27.21;99892.56;5041313;28;20060;-47
2021/09/02 09:22:38;;;;;;;5.40;2.80;;;;;;;28.70;27.54;99874.38;5037456;28;20536;-49
2021/09/02 09:25:05;;;;;;;6.40;2.70;;;;;;;28.87;27.32;99870.03;5029209;28;20369;-48
2021/09/02 09:27:38;;;;;;;4.15;2.70;;;;;;;29.40;26.66;99874.31;5029940;28;20022;-48
2021/09/02 09:30:08;;;;;;;4.90;2.92;;;;;;;29.03;26.35;99871.13;5038950;28;20085;-48
2021/09/02 09:32:57;;;;;;;3.45;2.70;;;;;;;29.36;26.47;99873.34;5037434;28;20405;-48
2021/09/02 09:35:42;;;;;;;4.78;2.90;;;;;;;29.82;26.16;99880.81;5027138;28;20097;-50
2021/09/02 09:38:19;;;;;;;6.15;2.83;;;;;;;29.60;26.08;99870.06;5040106;28;20037;-48
2021/09/02 09:40:51;;;;;;;4.10;2.70;;;;;;;29.75;26.07;99866.81;5043701;28;20036;-48
2021/09/02 09:43:24;;;;;;;3.92;2.58;;;;;;;29.75;25.94;99875.03;5031200;28;20057;-47
2021/09/02 09:45:50;;;;;;;6.45;2.75;;;;;;;29.82;26.21;99869.03;5041196;28;20497;-49
2021/09/02 09:48:29;;;;;;;7.90;2.90;;;;;;;29.75;26.39;99860.53;5040355;28;20137;-48
2021/09/02 09:51:13;;;;;;;4.90;2.65;;;;;;;29.01;26.74;99865.16;5034949;28;20549;-47
2021/09/02 09:53:39;;;;;;;3.55;2.30;;;;;;;28.92;27.02;99856.16;5035999;28;20056;-48
2021/09/02 09:56:05;;;;;;;4.22;2.45;;;;;;;28.80;26.87;99849.41;5041905;28;20032;-47
2021/09/02 09:58:31;;;;;;;6.22;2.70;;;;;;;29.04;27.14;99859.84;5043011;28;20096;-48
2021/09/02 10:00:58;;;;;;;5.97;2.75;;;;;;;28.94;26.91;99829.25;5034720;28;20030;-47
2021/09/02 10:03:24;;;;;;;5.07;2.78;;;;;;;29.16;26.90;99842.78;5033818;28;20185;-49
2021/09/02 10:05:50;;;;;;;5.40;2.65;;;;;;;29.34;26.88;99851.78;5043805;28;20499;-50
2021/09/02 10:08:16;;;;;;;14.45;11.57;;;;;;;29.12;26.90;99855.50;5040138;28;20031;-48
2021/09/02 10:10:41;;;;;;;4.45;3.15;;;;;;;28.81;27.05;99845.53;5036140;28;20059;-49
2021/09/02 10:13:07;;;;;;;5.80;2.50;;;;;;;28.72;27.31;99844.75;5047119;28;20083;-51
2021/09/02 10:15:33;;;;;;;6.97;2.65;;;;;;;29.17;27.00;99847.13;5034433;28;20032;-50
2021/09/02 10:17:59;;;;;;;13.60;2.70;;;;;;;29.42;26.72;99844.66;5042884;28;20564;-51
2021/09/02 10:20:25;;;;;;;5.50;3.00;;;;;;;29.97;25.78;99846.53;5024564;28;20416;-51
2021/09/02 10:22:54;;;;;;;5.53;2.70;;;;;;;29.49;26.51;99844.13;5017537;28;20033;-51
2021/09/02 10:25:35;;;;;;;4.47;2.40;;;;;;;29.84;25.56;99833.88;5042310;28;20784;-49
2021/09/02 10:28:21;;;;;;;6.80;2.47;;;;;;;29.77;26.11;99831.63;5041039;28;20187;-47
2021/09/02 10:30:53;;;;;;;4.35;2.75;;;;;;;29.69;26.14;99835.19;5044851;28;20091;-50
2021/09/02 10:33:35;;;;;;;3.80;2.65;;;;;;;29.90;26.34;99827.06;5033458;28;20491;-47
2021/09/02 10:36:02;;;;;;;5.40;2.50;;;;;;;30.24;25.49;99822.47;5041728;28;20034;-50
2021/09/02 10:38:45;;;;;;;5.60;2.55;;;;;;;30.18;25.41;99823.81;5042126;28;20059;-51
2021/09/02 10:41:11;;;;;;;5.00;2.08;;;;;;;29.96;25.54;99831.19;5033232;28;20033;-49
2021/09/02 10:43:53;;;;;;;5.07;2.28;;;;;;;30.20;24.92;99827.03;5044654;28;20103;-48
2021/09/02 10:46:29;;;;;;;4.22;2.50;;;;;;;30.38;25.05;99836.75;5040993;28;20461;-47
2021/09/02 10:48:55;;;;;;;2.97;2.22;;;;;;;29.24;26.13;99822.78;5033889;28;20025;-51
2021/09/02 10:51:34;;;;;;;6.63;2.60;;;;;;;29.56;25.68;99833.47;5046501;28;20032;-48
2021/09/02 10:54:06;;;;;;;6.65;2.78;;;;;;;29.63;25.62;99834.56;5038300;28;20031;-48
2021/09/02 10:56:53;;;;;;;6.40;5.25;;;;;;;29.71;25.99;99832.91;5036949;28;20029;-49
2021/09/02 10:59:37;;;;;;;5.25;2.33;;;;;;;29.72;25.70;99830.97;5025967;28;20115;-50
2021/09/02 11:02:03;;;;;;;3.33;2.20;;;;;;;29.66;25.50;99816.66;5046833;28;20024;-48
2021/09/02 11:04:28;;;;;;;5.07;2.40;;;;;;;29.89;25.69;99832.84;5037501;28;20556;-51
2021/09/02 11:06:54;;;;;;;7.18;2.35;;;;;;;29.73;25.85;99830.69;5045353;28;20071;-48
2021/09/02 11:09:39;;;;;;;5.85;2.70;;;;;;;29.39;26.12;99826.91;5032999;28;20049;-52
2021/09/02 11:12:08;;;;;;;3.42;2.70;;;;;;;29.98;25.59;99831.66;5040811;28;20030;-47
2021/09/02 11:14:44;;;;;;;5.82;2.42;;;;;;;29.69;25.79;99834.41;5041230;28;20025;-48
2021/09/02 11:17:10;;;;;;;3.78;2.20;;;;;;;29.39;26.21;99828.84;5033118;28;20112;-48
2021/09/02 11:19:37;;;;;;;4.88;2.50;;;;;;;29.17;26.15;99827.16;5047063;28;20124;-48
2021/09/02 11:22:13;;;;;;;5.75;2.60;;;;;;;29.65;25.70;99830.72;5042662;28;20403;-47
2021/09/02 11:24:39;;;;;;;5.22;2.45;;;;;;;29.74;25.62;99804.88;5039916;28;20458;-48
2021/09/02 11:27:04;;;;;;;5.70;2.30;;;;;;;29.95;24.82;99806.84;5033392;28;20486;-49
2021/09/02 11:29:30;;;;;;;5.68;2.10;;;;;;;30.02;25.35;99821.66;5048775;28;20106;-48
2021/09/02 11:32:01;;;;;;;6.18;2.30;;;;;;;30.12;24.79;99816.91;5041046;28;20054;-48
2021/09/02 11:34:27;;;;;;;6.50;2.25;;;;;;;30.26;24.84;99813.94;5041342;28;20022;-48